sensor_id;sensor_type;location;lat;lon;timestamp;pressure;altitude;pressure_sealevel;temperature;humidity
76132;BME280;64877;50.994;13.650;2023-02-01T00:01:43;99460.91;;;4.89;71.83
76132;BME280;64877;50.994;13.650;2023-02-01T00:04:08;99468.41;;;4.99;71.98
76132;BME280;64877;50.994;13.650;2023-02-01T00:06:34;99460.78;;;5.07;71.42
76132;BME280;64877;50.994;13.650;2023-02-01T00:08:59;99463.75;;;5.02;71.89
76132;BME280;64877;50.994;13.650;2023-02-01T00:11:25;99472.06;;;4.98;71.35
76132;BME280;64877;50.994;13.650;2023-02-01T00:13:51;99468.59;;;4.96;72.10
76132;BME280;64877;50.994;13.650;2023-02-01T00:16:27;99475.84;;;4.93;72.35
76132;BME280;64877;50.994;13.650;2023-02-01T00:18:58;99472.06;;;4.98;71.96
76132;BME280;64877;50.994;13.650;2023-02-01T00:21:24;99472.59;;;4.88;72.81
76132;BME280;64877;50.994;13.650;2023-02-01T00:23:50;99462.28;;;4.97;72.34
76132;BME280;64877;50.994;13.650;2023-02-01T00:28:57;99476.00;;;4.90;72.36
76132;BME280;64877;50.994;13.650;2023-02-01T00:31:22;99484.13;;;4.89;72.83
76132;BME280;64877;50.994;13.650;2023-02-01T00:33:48;99467.28;;;4.87;72.48
76132;BME280;64877;50.994;13.650;2023-02-01T00:36:14;99474.47;;;4.86;72.53
76132;BME280;64877;50.994;13.650;2023-02-01T00:38:39;99475.78;;;4.79;72.81
76132;BME280;64877;50.994;13.650;2023-02-01T00:43:37;99483.28;;;4.88;72.34
76132;BME280;64877;50.994;13.650;2023-02-01T00:46:02;99483.28;;;4.88;71.92
76132;BME280;64877;50.994;13.650;2023-02-01T00:48:28;99488.03;;;4.83;72.01
76132;BME280;64877;50.994;13.650;2023-02-01T00:50:54;99483.09;;;4.91;71.40
76132;BME280;64877;50.994;13.650;2023-02-01T00:53:19;99475.91;;;4.92;71.31
76132;BME280;64877;50.994;13.650;2023-02-01T00:55:46;99487.50;;;4.92;71.35
76132;BME280;64877;50.994;13.650;2023-02-01T00:58:11;99474.31;;;4.89;71.31
76132;BME280;64877;50.994;13.650;2023-02-01T01:00:37;99488.78;;;4.85;71.51
76132;BME280;64877;50.994;13.650;2023-02-01T01:03:02;99486.97;;;4.86;71.43
76132;BME280;64877;50.994;13.650;2023-02-01T01:05:43;99488.78;;;4.85;71.82
76132;BME280;64877;50.994;13.650;2023-02-01T01:08:08;99488.03;;;4.83;71.78
76132;BME280;64877;50.994;13.650;2023-02-01T01:10:33;99489.84;;;4.83;71.69
76132;BME280;64877;50.994;13.650;2023-02-01T01:12:59;99494.50;;;4.79;71.70
76132;BME280;64877;50.994;13.650;2023-02-01T01:15:25;99479.47;;;4.77;71.91
76132;BME280;64877;50.994;13.650;2023-02-01T01:17:50;99477.59;;;4.79;71.11
76132;BME280;64877;50.994;13.650;2023-02-01T01:20:15;99476.38;;;4.84;70.92
76132;BME280;64877;50.994;13.650;2023-02-01T01:22:41;99475.19;;;4.74;71.15
76132;BME280;64877;50.994;13.650;2023-02-01T01:25:07;99483.97;;;4.76;71.27
76132;BME280;64877;50.994;13.650;2023-02-01T01:27:32;99472.84;;;4.84;70.68
76132;BME280;64877;50.994;13.650;2023-02-01T01:29:57;99465.84;;;4.81;71.10
76132;BME280;64877;50.994;13.650;2023-02-01T01:32:23;99472.41;;;4.76;70.92
76132;BME280;64877;50.994;13.650;2023-02-01T01:34:48;99472.75;;;4.85;71.00
76132;BME280;64877;50.994;13.650;2023-02-01T01:37:13;99465.69;;;4.84;70.33
76132;BME280;64877;50.994;13.650;2023-02-01T01:39:39;99474.72;;;4.82;70.13
76132;BME280;64877;50.994;13.650;2023-02-01T01:42:04;99464.13;;;4.80;69.96
76132;BME280;64877;50.994;13.650;2023-02-01T01:47:20;99461.72;;;4.76;70.34
76132;BME280;64877;50.994;13.650;2023-02-01T01:49:45;99462.91;;;4.70;70.59
76132;BME280;64877;50.994;13.650;2023-02-01T01:52:11;99468.44;;;4.67;70.70
76132;BME280;64877;50.994;13.650;2023-02-01T01:54:39;99467.81;;;4.62;71.04
76132;BME280;64877;50.994;13.650;2023-02-01T01:57:12;99457.22;;;4.60;70.98
76132;BME280;64877;50.994;13.650;2023-02-01T01:59:41;99464.28;;;4.61;70.47
76132;BME280;64877;50.994;13.650;2023-02-01T02:02:10;99457.72;;;4.67;69.91
76132;BME280;64877;50.994;13.650;2023-02-01T02:04:36;99459.28;;;4.71;69.63
76132;BME280;64877;50.994;13.650;2023-02-01T02:07:16;99461.56;;;4.63;69.54
76132;BME280;64877;50.994;13.650;2023-02-01T02:09:42;99466.03;;;4.62;69.73
76132;BME280;64877;50.994;13.650;2023-02-01T02:12:08;99465.41;;;4.57;70.00
76132;BME280;64877;50.994;13.650;2023-02-01T02:14:34;99458.28;;;4.58;69.85
76132;BME280;64877;50.994;13.650;2023-02-01T02:36:01;99453.53;;;4.63;69.45
76132;BME280;64877;50.994;13.650;2023-02-01T02:44:21;99442.03;;;4.61;69.68
76132;BME280;64877;50.994;13.650;2023-02-01T02:47:16;99438.41;;;4.62;69.69
76132;BME280;64877;50.994;13.650;2023-02-01T02:49:55;99434.97;;;4.60;70.16
76132;BME280;64877;50.994;13.650;2023-02-01T02:53:08;99434.47;;;4.53;69.81
76132;BME280;64877;50.994;13.650;2023-02-01T02:55:50;99443.34;;;4.54;69.47
76132;BME280;64877;50.994;13.650;2023-02-01T02:58:16;99443.50;;;4.51;69.28
76132;BME280;64877;50.994;13.650;2023-02-01T03:01:01;99439.91;;;4.68;68.53
76132;BME280;64877;50.994;13.650;2023-02-01T03:03:46;99435.41;;;4.68;68.76
76132;BME280;64877;50.994;13.650;2023-02-01T03:06:32;99441.28;;;4.59;69.15
76132;BME280;64877;50.994;13.650;2023-02-01T03:08:58;99443.34;;;4.54;69.68
76132;BME280;64877;50.994;13.650;2023-02-01T03:11:26;99438.59;;;4.59;69.51
76132;BME280;64877;50.994;13.650;2023-02-01T03:14:12;99428.25;;;4.53;69.25
76132;BME280;64877;50.994;13.650;2023-02-01T03:16:57;99444.47;;;4.65;68.71
76132;BME280;64877;50.994;13.650;2023-02-01T03:19:29;99445.78;;;4.58;68.94
76132;BME280;64877;50.994;13.650;2023-02-01T03:22:01;99444.13;;;4.56;68.96
76132;BME280;64877;50.994;13.650;2023-02-01T03:24:33;99443.00;;;4.60;68.76
76132;BME280;64877;50.994;13.650;2023-02-01T03:30:02;99445.16;;;4.69;68.16
76132;BME280;64877;50.994;13.650;2023-02-01T03:32:31;99438.59;;;4.59;68.56
76132;BME280;64877;50.994;13.650;2023-02-01T03:35:17;99436.19;;;4.54;68.53
76132;BME280;64877;50.994;13.650;2023-02-01T03:37:44;99432.47;;;4.57;68.40
76132;BME280;64877;50.994;13.650;2023-02-01T03:40:11;99426.69;;;4.64;67.93
76132;BME280;64877;50.994;13.650;2023-02-01T03:42:43;99436.00;;;4.57;68.59
76132;BME280;64877;50.994;13.650;2023-02-01T03:45:20;99444.72;;;4.61;67.98
76132;BME280;64877;50.994;13.650;2023-02-01T03:47:49;99442.47;;;4.69;68.20
76132;BME280;64877;50.994;13.650;2023-02-01T03:50:22;99441.03;;;4.63;68.25
76132;BME280;64877;50.994;13.650;2023-02-01T03:53:09;99435.75;;;4.62;68.44
76132;BME280;64877;50.994;13.650;2023-02-01T03:55:37;99435.94;;;4.59;68.05
76132;BME280;64877;50.994;13.650;2023-02-01T03:58:18;99439.56;;;4.58;68.47
76132;BME280;64877;50.994;13.650;2023-02-01T04:00:46;99431.19;;;4.64;67.63
76132;BME280;64877;50.994;13.650;2023-02-01T04:03:15;99428.50;;;4.64;67.95
76132;BME280;64877;50.994;13.650;2023-02-01T04:05:40;99427.56;;;4.65;67.67
76132;BME280;64877;50.994;13.650;2023-02-01T04:08:05;99426.59;;;4.66;67.92
76132;BME280;64877;50.994;13.650;2023-02-01T04:10:31;99422.81;;;4.70;67.46
76132;BME280;64877;50.994;13.650;2023-02-01T04:12:56;99429.81;;;4.73;67.67
76132;BME280;64877;50.994;13.650;2023-02-01T04:15:22;99418.22;;;4.72;67.41
76132;BME280;64877;50.994;13.650;2023-02-01T04:17:47;99414.78;;;4.70;67.30
76132;BME280;64877;50.994;13.650;2023-02-01T04:20:13;99420.63;;;4.77;66.95
76132;BME280;64877;50.994;13.650;2023-02-01T04:22:38;99414.25;;;4.79;66.90
76132;BME280;64877;50.994;13.650;2023-02-01T04:25:04;99408.91;;;4.79;67.02
76132;BME280;64877;50.994;13.650;2023-02-01T04:27:31;99401.31;;;4.87;66.93
76132;BME280;64877;50.994;13.650;2023-02-01T04:29:59;99401.47;;;4.84;66.83
76132;BME280;64877;50.994;13.650;2023-02-01T04:32:24;99392.97;;;4.92;66.38
76132;BME280;64877;50.994;13.650;2023-02-01T04:34:50;99392.00;;;4.79;67.12
76132;BME280;64877;50.994;13.650;2023-02-01T04:37:15;99386.44;;;4.82;66.83
76132;BME280;64877;50.994;13.650;2023-02-01T04:39:43;99385.06;;;4.90;66.48
76132;BME280;64877;50.994;13.650;2023-02-01T04:42:09;99395.44;;;4.81;66.45
76132;BME280;64877;50.994;13.650;2023-02-01T04:44:34;99383.88;;;4.80;66.43
76132;BME280;64877;50.994;13.650;2023-02-01T04:47:02;99379.91;;;4.87;66.52
76132;BME280;64877;50.994;13.650;2023-02-01T04:49:27;99370.91;;;4.88;65.99
76132;BME280;64877;50.994;13.650;2023-02-01T04:51:52;99371.34;;;4.81;66.44
76132;BME280;64877;50.994;13.650;2023-02-01T04:54:18;99369.81;;;4.77;66.37
76132;BME280;64877;50.994;13.650;2023-02-01T04:56:43;99359.84;;;4.95;65.80
76132;BME280;64877;50.994;13.650;2023-02-01T04:59:10;99367.81;;;4.80;66.22
76132;BME280;64877;50.994;13.650;2023-02-01T05:01:36;99355.56;;;4.76;66.19
76132;BME280;64877;50.994;13.650;2023-02-01T05:04:01;99343.69;;;4.96;65.95
76132;BME280;64877;50.994;13.650;2023-02-01T05:06:27;99330.59;;;4.91;65.69
76132;BME280;64877;50.994;13.650;2023-02-01T05:08:55;99334.22;;;4.90;65.43
76132;BME280;64877;50.994;13.650;2023-02-01T05:11:21;99323.31;;;4.79;65.39
76132;BME280;64877;50.994;13.650;2023-02-01T05:14:06;99325.38;;;4.74;65.94
76132;BME280;64877;50.994;13.650;2023-02-01T05:16:31;99313.63;;;4.77;65.54
76132;BME280;64877;50.994;13.650;2023-02-01T05:18:57;99327.28;;;4.72;65.91
76132;BME280;64877;50.994;13.650;2023-02-01T05:21:22;99332.63;;;4.72;65.63
76132;BME280;64877;50.994;13.650;2023-02-01T05:23:47;99336.25;;;4.71;65.68
76132;BME280;64877;50.994;13.650;2023-02-01T05:26:31;99327.09;;;4.75;65.40
76132;BME280;64877;50.994;13.650;2023-02-01T05:28:57;99309.06;;;4.79;65.73
76132;BME280;64877;50.994;13.650;2023-02-01T05:31:22;99317.25;;;4.76;65.60
76132;BME280;64877;50.994;13.650;2023-02-01T05:33:48;99298.13;;;4.98;65.03
76132;BME280;64877;50.994;13.650;2023-02-01T05:36:13;99305.34;;;4.81;65.48
76132;BME280;64877;50.994;13.650;2023-02-01T05:38:39;99300.97;;;4.95;64.98
76132;BME280;64877;50.994;13.650;2023-02-01T05:41:04;99305.44;;;4.80;65.48
76132;BME280;64877;50.994;13.650;2023-02-01T05:43:30;99305.53;;;4.78;65.36
76132;BME280;64877;50.994;13.650;2023-02-01T05:45:55;99303.44;;;4.83;65.45
76132;BME280;64877;50.994;13.650;2023-02-01T05:48:21;99313.09;;;4.86;65.27
76132;BME280;64877;50.994;13.650;2023-02-01T05:50:46;99303.38;;;4.99;64.92
76132;BME280;64877;50.994;13.650;2023-02-01T05:53:12;99309.66;;;4.84;65.69
76132;BME280;64877;50.994;13.650;2023-02-01T05:55:38;99299.97;;;4.81;65.27
76132;BME280;64877;50.994;13.650;2023-02-01T05:58:04;99301.25;;;4.90;65.74
76132;BME280;64877;50.994;13.650;2023-02-01T06:00:29;99299.91;;;4.97;65.44
76132;BME280;64877;50.994;13.650;2023-02-01T06:02:55;99299.63;;;4.87;65.17
76132;BME280;64877;50.994;13.650;2023-02-01T06:05:20;99298.09;;;4.83;65.51
76132;BME280;64877;50.994;13.650;2023-02-01T06:07:46;99302.50;;;4.84;65.43
76132;BME280;64877;50.994;13.650;2023-02-01T06:10:12;99306.72;;;4.88;65.43
76132;BME280;64877;50.994;13.650;2023-02-01T06:12:37;99286.25;;;5.02;65.06
76132;BME280;64877;50.994;13.650;2023-02-01T06:15:03;99291.31;;;4.92;65.08
76132;BME280;64877;50.994;13.650;2023-02-01T06:17:29;99298.56;;;4.90;65.45
76132;BME280;64877;50.994;13.650;2023-02-01T06:19:54;99296.75;;;4.90;65.66
76132;BME280;64877;50.994;13.650;2023-02-01T06:22:20;99288.72;;;4.90;64.98
76132;BME280;64877;50.994;13.650;2023-02-01T06:24:46;99294.09;;;4.90;65.29
76132;BME280;64877;50.994;13.650;2023-02-01T06:27:12;99283.00;;;4.82;65.67
76132;BME280;64877;50.994;13.650;2023-02-01T06:29:38;99299.72;;;4.86;65.71
76132;BME280;64877;50.994;13.650;2023-02-01T06:32:04;99293.50;;;4.85;65.84
76132;BME280;64877;50.994;13.650;2023-02-01T06:34:29;99294.47;;;4.84;65.55
76132;BME280;64877;50.994;13.650;2023-02-01T06:36:54;99301.91;;;4.79;66.28
76132;BME280;64877;50.994;13.650;2023-02-01T06:39:20;99311.53;;;4.82;66.38
76132;BME280;64877;50.994;13.650;2023-02-01T06:41:47;99307.66;;;4.87;66.08
76132;BME280;64877;50.994;13.650;2023-02-01T06:44:12;99307.16;;;4.81;66.62
76132;BME280;64877;50.994;13.650;2023-02-01T06:46:38;99304.09;;;4.87;66.85
76132;BME280;64877;50.994;13.650;2023-02-01T06:49:03;99292.38;;;4.89;66.82
76132;BME280;64877;50.994;13.650;2023-02-01T06:51:29;99290.66;;;4.88;66.98
76132;BME280;64877;50.994;13.650;2023-02-01T06:53:55;99301.53;;;4.85;67.23
76132;BME280;64877;50.994;13.650;2023-02-01T06:56:20;99290.66;;;4.88;67.41
76132;BME280;64877;50.994;13.650;2023-02-01T06:58:46;99290.66;;;4.88;67.21
76132;BME280;64877;50.994;13.650;2023-02-01T07:01:11;99286.25;;;4.87;67.86
76132;BME280;64877;50.994;13.650;2023-02-01T07:03:37;99279.28;;;4.85;67.83
76132;BME280;64877;50.994;13.650;2023-02-01T07:06:02;99285.84;;;4.79;68.32
76132;BME280;64877;50.994;13.650;2023-02-01T07:08:31;99279.72;;;4.77;68.79
76132;BME280;64877;50.994;13.650;2023-02-01T07:11:01;99289.28;;;4.81;69.31
76132;BME280;64877;50.994;13.650;2023-02-01T07:13:26;99282.31;;;4.79;69.92
76132;BME280;64877;50.994;13.650;2023-02-01T07:15:52;99283.44;;;4.75;69.99
76132;BME280;64877;50.994;13.650;2023-02-01T07:18:17;99279.53;;;4.80;70.27
76132;BME280;64877;50.994;13.650;2023-02-01T07:20:42;99296.38;;;4.82;70.66
76132;BME280;64877;50.994;13.650;2023-02-01T07:23:11;99285.00;;;4.79;71.65
76132;BME280;64877;50.994;13.650;2023-02-01T07:25:36;99281.78;;;4.58;72.58
76132;BME280;64877;50.994;13.650;2023-02-01T07:28:02;99278.16;;;4.59;72.97
76132;BME280;64877;50.994;13.650;2023-02-01T07:30:27;99284.69;;;4.69;73.37
76132;BME280;64877;50.994;13.650;2023-02-01T07:32:52;99264.69;;;4.60;73.37
76132;BME280;64877;50.994;13.650;2023-02-01T07:35:18;99265.59;;;4.45;74.51
76132;BME280;64877;50.994;13.650;2023-02-01T07:37:43;99272.88;;;4.43;74.64
76132;BME280;64877;50.994;13.650;2023-02-01T07:40:09;99264.56;;;4.48;74.82
76132;BME280;64877;50.994;13.650;2023-02-01T07:42:35;99266.72;;;4.71;74.25
76132;BME280;64877;50.994;13.650;2023-02-01T07:45:00;99261.09;;;4.46;74.05
76132;BME280;64877;50.994;13.650;2023-02-01T07:47:27;99256.13;;;4.39;74.66
76132;BME280;64877;50.994;13.650;2023-02-01T07:49:52;99256.81;;;4.43;75.06
76132;BME280;64877;50.994;13.650;2023-02-01T07:52:18;99265.09;;;4.38;75.43
76132;BME280;64877;50.994;13.650;2023-02-01T07:54:43;99255.22;;;4.55;73.87
76132;BME280;64877;50.994;13.650;2023-02-01T07:57:09;99258.28;;;4.49;73.55
76132;BME280;64877;50.994;13.650;2023-02-01T07:59:36;99258.84;;;4.54;73.66
76132;BME280;64877;50.994;13.650;2023-02-01T08:02:21;99239.56;;;4.49;74.19
76132;BME280;64877;50.994;13.650;2023-02-01T08:04:47;99249.88;;;4.55;73.22
76132;BME280;64877;50.994;13.650;2023-02-01T08:07:12;99238.44;;;4.53;73.35
76132;BME280;64877;50.994;13.650;2023-02-01T08:09:37;99245.56;;;4.52;72.71
76132;BME280;64877;50.994;13.650;2023-02-01T08:12:03;99235.91;;;4.50;72.81
76132;BME280;64877;50.994;13.650;2023-02-01T08:14:28;99237.53;;;4.52;72.66
76132;BME280;64877;50.994;13.650;2023-02-01T08:16:54;99228.53;;;4.69;72.49
76132;BME280;64877;50.994;13.650;2023-02-01T08:19:19;99225.97;;;4.52;73.62
76132;BME280;64877;50.994;13.650;2023-02-01T08:21:44;99237.63;;;4.51;73.46
76132;BME280;64877;50.994;13.650;2023-02-01T08:24:11;99238.13;;;4.57;73.51
76132;BME280;64877;50.994;13.650;2023-02-01T08:26:37;99221.78;;;4.48;74.04
76132;BME280;64877;50.994;13.650;2023-02-01T08:29:04;99213.78;;;4.48;73.79
76132;BME280;64877;50.994;13.650;2023-02-01T08:31:30;99211.63;;;4.69;72.55
76132;BME280;64877;50.994;13.650;2023-02-01T08:33:59;99206.72;;;4.61;73.44
76132;BME280;64877;50.994;13.650;2023-02-01T08:36:27;99203.50;;;4.70;71.63
76132;BME280;64877;50.994;13.650;2023-02-01T08:38:53;99208.09;;;4.68;71.89
76132;BME280;64877;50.994;13.650;2023-02-01T08:41:22;99205.03;;;4.74;71.63
76132;BME280;64877;50.994;13.650;2023-02-01T08:43:47;99215.63;;;4.76;71.41
76132;BME280;64877;50.994;13.650;2023-02-01T08:46:13;99216.41;;;4.78;71.16
76132;BME280;64877;50.994;13.650;2023-02-01T08:48:39;99224.91;;;4.84;69.77
76132;BME280;64877;50.994;13.650;2023-02-01T08:51:07;99221.47;;;4.82;69.71
76132;BME280;64877;50.994;13.650;2023-02-01T08:53:33;99213.63;;;4.79;69.88
76132;BME280;64877;50.994;13.650;2023-02-01T08:55:59;99221.09;;;4.88;70.14
76132;BME280;64877;50.994;13.650;2023-02-01T08:58:25;99219.19;;;4.90;69.15
76132;BME280;64877;50.994;13.650;2023-02-01T09:00:51;99216.69;;;5.02;69.60
76132;BME280;64877;50.994;13.650;2023-02-01T09:03:16;99221.09;;;5.03;68.83
76132;BME280;64877;50.994;13.650;2023-02-01T09:05:42;99220.91;;;5.06;68.85
76132;BME280;64877;50.994;13.650;2023-02-01T09:08:08;99236.00;;;5.07;68.64
76132;BME280;64877;50.994;13.650;2023-02-01T09:10:34;99225.00;;;5.11;69.17
76132;BME280;64877;50.994;13.650;2023-02-01T09:13:00;99210.75;;;5.11;69.39
76132;BME280;64877;50.994;13.650;2023-02-01T09:15:25;99214.31;;;5.11;69.20
76132;BME280;64877;50.994;13.650;2023-02-01T09:17:51;99208.88;;;5.13;69.95
76132;BME280;64877;50.994;13.650;2023-02-01T09:20:16;99223.69;;;5.04;70.28
76132;BME280;64877;50.994;13.650;2023-02-01T09:22:42;99225.28;;;5.07;70.84
76132;BME280;64877;50.994;13.650;2023-02-01T09:25:08;99225.00;;;5.11;70.19
76132;BME280;64877;50.994;13.650;2023-02-01T09:27:34;99229.72;;;5.08;70.44
76132;BME280;64877;50.994;13.650;2023-02-01T09:30:00;99230.56;;;4.94;71.51
76132;BME280;64877;50.994;13.650;2023-02-01T09:32:25;99231.59;;;4.91;71.88
76132;BME280;64877;50.994;13.650;2023-02-01T09:34:52;99242.59;;;5.01;71.98
76132;BME280;64877;50.994;13.650;2023-02-01T09:37:18;99229.88;;;4.90;72.29
76132;BME280;64877;50.994;13.650;2023-02-01T09:39:44;99236.94;;;4.91;73.31
76132;BME280;64877;50.994;13.650;2023-02-01T09:42:24;99253.19;;;4.88;74.15
76132;BME280;64877;50.994;13.650;2023-02-01T09:47:51;99252.00;;;4.64;74.92
76132;BME280;64877;50.994;13.650;2023-02-01T09:50:21;99256.22;;;4.68;75.28
76132;BME280;64877;50.994;13.650;2023-02-01T09:55:36;99261.91;;;4.32;77.21
76132;BME280;64877;50.994;13.650;2023-02-01T10:00:38;99275.84;;;4.07;78.53
76132;BME280;64877;50.994;13.650;2023-02-01T10:03:05;99266.91;;;4.08;77.87
76132;BME280;64877;50.994;13.650;2023-02-01T10:05:54;99281.09;;;3.93;79.12
76132;BME280;64877;50.994;13.650;2023-02-01T10:11:27;99290.16;;;3.90;78.18
76132;BME280;64877;50.994;13.650;2023-02-01T10:22:41;99300.66;;;3.77;79.47
76132;BME280;64877;50.994;13.650;2023-02-01T10:27:35;99301.25;;;3.82;79.36
76132;BME280;64877;50.994;13.650;2023-02-01T10:30:16;99297.72;;;3.82;79.47
76132;BME280;64877;50.994;13.650;2023-02-01T10:32:43;99298.59;;;3.82;79.66
76132;BME280;64877;50.994;13.650;2023-02-01T10:35:13;99304.88;;;3.81;80.23
76132;BME280;64877;50.994;13.650;2023-02-01T10:37:41;99302.06;;;3.84;80.01
76132;BME280;64877;50.994;13.650;2023-02-01T10:42:40;99295.50;;;3.74;80.34
76132;BME280;64877;50.994;13.650;2023-02-01T10:45:06;99295.75;;;3.85;79.84
76132;BME280;64877;50.994;13.650;2023-02-01T10:47:32;99305.50;;;3.86;79.89
76132;BME280;64877;50.994;13.650;2023-02-01T10:50:29;99287.38;;;3.92;80.15
76132;BME280;64877;50.994;13.650;2023-02-01T10:58:01;99289.47;;;4.18;79.36
76132;BME280;64877;50.994;13.650;2023-02-01T11:00:27;99287.78;;;4.31;78.34
76132;BME280;64877;50.994;13.650;2023-02-01T11:02:54;99289.75;;;4.44;77.93
76132;BME280;64877;50.994;13.650;2023-02-01T11:05:20;99305.16;;;4.54;77.60
76132;BME280;64877;50.994;13.650;2023-02-01T11:07:53;99295.06;;;4.59;77.37
76132;BME280;64877;50.994;13.650;2023-02-01T11:10:40;99300.81;;;4.68;76.55
76132;BME280;64877;50.994;13.650;2023-02-01T11:13:14;99310.47;;;4.70;76.57
76132;BME280;64877;50.994;13.650;2023-02-01T11:15:46;99297.78;;;4.74;76.37
76132;BME280;64877;50.994;13.650;2023-02-01T11:18:17;99296.94;;;4.73;76.74
76132;BME280;64877;50.994;13.650;2023-02-01T11:20:44;99291.03;;;4.82;75.20
76132;BME280;64877;50.994;13.650;2023-02-01T11:23:15;99283.22;;;4.93;75.25
76132;BME280;64877;50.994;13.650;2023-02-01T11:25:54;99299.25;;;4.93;75.61
76132;BME280;64877;50.994;13.650;2023-02-01T11:28:23;99296.59;;;4.93;75.31
76132;BME280;64877;50.994;13.650;2023-02-01T11:30:51;99288.19;;;5.00;74.48
76132;BME280;64877;50.994;13.650;2023-02-01T11:33:22;99289.03;;;5.00;74.70
76132;BME280;64877;50.994;13.650;2023-02-01T11:35:51;99275.09;;;5.09;73.99
76132;BME280;64877;50.994;13.650;2023-02-01T11:38:25;99267.75;;;5.13;73.75
76132;BME280;64877;50.994;13.650;2023-02-01T11:40:51;99274.81;;;5.14;73.75
76132;BME280;64877;50.994;13.650;2023-02-01T11:43:28;99266.97;;;5.11;73.06
76132;BME280;64877;50.994;13.650;2023-02-01T11:46:00;99257.91;;;5.13;72.51
76132;BME280;64877;50.994;13.650;2023-02-01T11:48:29;99268.97;;;5.22;72.44
76132;BME280;64877;50.994;13.650;2023-02-01T11:51:15;99265.25;;;5.24;72.37
76132;BME280;64877;50.994;13.650;2023-02-01T11:59:34;99241.34;;;5.35;71.65
76132;BME280;64877;50.994;13.650;2023-02-01T12:39:05;99232.34;;;5.36;71.13
76132;BME280;64877;50.994;13.650;2023-02-01T12:41:52;99240.78;;;5.44;70.97
76132;BME280;64877;50.994;13.650;2023-02-01T12:44:38;99228.91;;;5.49;70.83
76132;BME280;64877;50.994;13.650;2023-02-01T12:47:29;99232.56;;;5.48;70.85
76132;BME280;64877;50.994;13.650;2023-02-01T12:50:04;99226.91;;;5.52;70.47
76132;BME280;64877;50.994;13.650;2023-02-01T12:52:39;99230.53;;;5.51;70.77
76132;BME280;64877;50.994;13.650;2023-02-01T12:55:20;99219.44;;;5.57;70.02
76132;BME280;64877;50.994;13.650;2023-02-01T12:58:35;99221.03;;;5.60;69.71
76132;BME280;64877;50.994;13.650;2023-02-01T13:00:43;99221.72;;;5.63;70.14
76132;BME280;64877;50.994;13.650;2023-02-01T13:05:53;99208.47;;;5.75;69.45
76132;BME280;64877;50.994;13.650;2023-02-01T13:08:24;99206.31;;;5.67;69.75
76132;BME280;64877;50.994;13.650;2023-02-01T13:11:00;99204.38;;;5.69;69.16
76132;BME280;64877;50.994;13.650;2023-02-01T13:13:35;99210.41;;;5.73;69.59
76132;BME280;64877;50.994;13.650;2023-02-01T13:16:18;99216.50;;;5.75;69.14
76132;BME280;64877;50.994;13.650;2023-02-01T13:18:50;99208.44;;;5.89;69.03
76132;BME280;64877;50.994;13.650;2023-02-01T13:21:25;99212.28;;;5.85;69.02
76132;BME280;64877;50.994;13.650;2023-02-01T13:23:51;99202.41;;;5.85;69.18
76132;BME280;64877;50.994;13.650;2023-02-01T13:26:17;99202.22;;;5.88;68.91
76132;BME280;64877;50.994;13.650;2023-02-01T13:28:55;99209.28;;;5.89;68.71
76132;BME280;64877;50.994;13.650;2023-02-01T13:42:55;99191.31;;;5.91;66.86
76132;BME280;64877;50.994;13.650;2023-02-01T13:45:21;99175.91;;;5.95;66.78
76132;BME280;64877;50.994;13.650;2023-02-01T13:47:51;99173.88;;;5.99;66.65
76132;BME280;64877;50.994;13.650;2023-02-01T13:50:49;99170.44;;;5.96;67.39
76132;BME280;64877;50.994;13.650;2023-02-01T13:53:18;99172.19;;;5.98;66.82
76132;BME280;64877;50.994;13.650;2023-02-01T13:55:54;99167.56;;;6.00;66.00
76132;BME280;64877;50.994;13.650;2023-02-01T13:58:22;99161.78;;;6.06;66.19
76132;BME280;64877;50.994;13.650;2023-02-01T14:03:50;99170.25;;;6.00;66.60
76132;BME280;64877;50.994;13.650;2023-02-01T14:11:54;99169.50;;;5.98;65.36
76132;BME280;64877;50.994;13.650;2023-02-01T14:19:22;99166.28;;;6.05;65.19
76132;BME280;64877;50.994;13.650;2023-02-01T14:21:50;99164.78;;;6.01;64.27
76132;BME280;64877;50.994;13.650;2023-02-01T14:24:26;99166.69;;;5.99;64.90
76132;BME280;64877;50.994;13.650;2023-02-01T14:26:54;99171.09;;;6.00;64.39
76132;BME280;64877;50.994;13.650;2023-02-01T14:29:32;99174.44;;;6.04;64.12
76132;BME280;64877;50.994;13.650;2023-02-01T14:32:21;99158.34;;;6.04;63.82
76132;BME280;64877;50.994;13.650;2023-02-01T14:44:39;99148.25;;;5.94;65.10
76132;BME280;64877;50.994;13.650;2023-02-01T14:55:37;99149.22;;;5.93;65.78
76132;BME280;64877;50.994;13.650;2023-02-01T14:58:40;99154.09;;;6.14;65.03
76132;BME280;64877;50.994;13.650;2023-02-01T15:04:11;99129.00;;;6.02;63.39
76132;BME280;64877;50.994;13.650;2023-02-01T15:09:15;99137.16;;;6.13;64.12
76132;BME280;64877;50.994;13.650;2023-02-01T15:12:01;99128.56;;;6.08;63.86
76132;BME280;64877;50.994;13.650;2023-02-01T15:14:35;99122.31;;;5.95;64.50
76132;BME280;64877;50.994;13.650;2023-02-01T15:17:02;99126.69;;;5.96;65.17
76132;BME280;64877;50.994;13.650;2023-02-01T15:19:29;99117.44;;;5.87;64.90
76132;BME280;64877;50.994;13.650;2023-02-01T15:21:57;99119.03;;;5.77;66.45
76132;BME280;64877;50.994;13.650;2023-02-01T15:24:26;99114.00;;;5.85;66.04
76132;BME280;64877;50.994;13.650;2023-02-01T15:26:53;99121.66;;;5.91;66.04
76132;BME280;64877;50.994;13.650;2023-02-01T15:29:23;99105.50;;;5.79;65.39
76132;BME280;64877;50.994;13.650;2023-02-01T15:31:53;99109.34;;;5.75;66.19
76132;BME280;64877;50.994;13.650;2023-02-01T15:34:20;99117.50;;;5.73;66.58
76132;BME280;64877;50.994;13.650;2023-02-01T15:36:46;99102.47;;;5.70;66.88
76132;BME280;64877;50.994;13.650;2023-02-01T15:39:21;99082.88;;;5.70;65.92
76132;BME280;64877;50.994;13.650;2023-02-01T15:41:59;99074.41;;;5.63;66.44
76132;BME280;64877;50.994;13.650;2023-02-01T15:44:45;99065.91;;;5.57;66.52
76132;BME280;64877;50.994;13.650;2023-02-01T15:47:25;99062.38;;;5.56;66.42
76132;BME280;64877;50.994;13.650;2023-02-01T15:49:54;99058.09;;;5.66;66.17
76132;BME280;64877;50.994;13.650;2023-02-01T15:52:32;99056.50;;;5.64;66.62